This is the latest recevied weather packets stored in our database for station/object N9MXT-13. If no packets are shown the sender has not sent any weather packets the latest 10 day(s).
| Time | Temp. | Humidity | Pressure | Rain* | Wind** | Luminosity | Snow |
|---|---|---|---|---|---|---|---|
| 1777897799 | 11.67° C | 73% | 1003.4 hPa | 0 mm | - | - | - |
| 1777897200 | 10.56° C | 79% | 1003.3 hPa | 0 mm | - | - | - |
| 1777895399 | 7.22° C | 88% | 1003.5 hPa | 0 mm | - | - | - |
| 1777893899 | 6.11° C | 88% | 1003.6 hPa | 0 mm | - | - | - |
| 1777893600 | 6.11° C | 88% | 1003.5 hPa | 0 mm | - | - | - |
| 1777893299 | 6.11° C | 88% | 1003.5 hPa | 0 mm | - | - | - |
| 1777885799 | 7.78° C | 81% | 1003.8 hPa | 0 mm | - | - | - |
| 1777880399 | 10.56° C | 73% | 1004.1 hPa | 0 mm | - | - | - |
| 1777877697 | 11.67° C | 71% | 1004.6 hPa | 0 mm | - | - | - |
| 1777876197 | 12.22° C | 71% | 1005.1 hPa | 0 mm | - | - | - |
| 1777875898 | 12.22° C | 71% | 1005.2 hPa | 0 mm | - | - | - |
| 1777872900 | 12.78° C | 70% | 1005.5 hPa | 0 mm | - | - | - |
| 1777870500 | 13.33° C | 69% | 1005.4 hPa | 0 mm | - | - | - |
| 1777869000 | 13.89° C | 68% | 1005.4 hPa | 0 mm | - | - | - |
| 1777868701 | 13.89° C | 68% | 1005.4 hPa | 0 mm | - | - | - |
| 1777868400 | 13.89° C | 68% | 1005.4 hPa | 0 mm | - | - | - |
| 1777865701 | 15° C | 66% | 1005.5 hPa | 0 mm | - | - | - |
| 1777863900 | 15° C | 65% | 1005.7 hPa | 0 mm | - | - | - |
| 1777860600 | 16.11° C | 61% | 1005.5 hPa | 0 mm | - | - | - |
| 1777860003 | 16.11° C | 60% | 1005.5 hPa | 0 mm | - | - | - |
| 1777859400 | 16.11° C | 59% | 1005.5 hPa | 0 mm | - | - | - |
| 1777856404 | 18.33° C | 52% | 1005 hPa | 0 mm | - | - | - |
| 1777849800 | 20.56° C | 45% | 1005.4 hPa | 0 mm | - | - | - |
| 1777847399 | 21.11° C | 44% | 1005.5 hPa | 0 mm | - | - | - |
| 1777842300 | 18.89° C | 47% | 1006.4 hPa | 0 mm | - | - | - |
* Rain latest hour (hover to see other rain measurements)
** Current wind speed in m/s (hover to see current wind gust speed)